Terminal Aerodrome Forecast
Issued by NWS Mt. Holly, NJ

Home | Current Version | Previous Version | Text Only | Print | Product List | Glossary On
Versions: 1 2 3 4 5 6 7 8 9 10 11 12 13 14 15 16 17
000
FTUS41 KPHI 020500 RRA
TAFACY
TAF
KACY 020546Z 0206/0306 36006KT P6SM SCT015 BKN030
     FM021000 36006KT 6SM BR OVC012
     FM021400 36012KT P6SM OVC020
     FM021800 02010KT P6SM OVC030
     FM022100 04006KT P6SM BKN040=

USA.gov is the U.S. government's official web portal to all federal, state and local government web resources and services.